createdAt,value
2018-07-04T00:00:52.331Z,0
2018-07-04T00:01:52.365Z,0
2018-07-04T00:02:52.263Z,0
2018-07-04T00:03:52.287Z,0
2018-07-04T00:04:52.398Z,0
2018-07-04T00:05:52.336Z,0
2018-07-04T00:06:52.400Z,0
2018-07-04T00:07:52.382Z,0
2018-07-04T00:08:52.386Z,0
2018-07-04T00:09:52.306Z,0
2018-07-04T00:10:52.291Z,0
2018-07-04T00:11:52.370Z,0
2018-07-04T00:12:52.294Z,0
2018-07-04T00:13:52.410Z,0
2018-07-04T00:14:52.278Z,0
2018-07-04T00:15:52.279Z,0
2018-07-04T00:16:52.356Z,0
2018-07-04T00:17:52.298Z,0
2018-07-04T00:18:52.367Z,0
2018-07-04T00:19:52.249Z,0
2018-07-04T00:20:52.272Z,0
2018-07-04T00:21:52.358Z,0
2018-07-04T00:22:52.275Z,0
2018-07-04T00:23:52.328Z,0
2018-07-04T00:24:52.338Z,0
2018-07-04T00:25:52.250Z,0
2018-07-04T00:26:52.334Z,0
2018-07-04T00:27:52.283Z,0
2018-07-04T00:28:52.342Z,0
2018-07-04T00:29:52.358Z,0
2018-07-04T00:30:52.381Z,0
2018-07-04T00:31:52.390Z,0
2018-07-04T00:32:52.412Z,0
2018-07-04T00:33:52.417Z,0
2018-07-04T00:34:52.428Z,0
2018-07-04T00:35:52.307Z,0
2018-07-04T00:36:52.405Z,0
2018-07-04T00:37:52.368Z,0
2018-07-04T00:38:52.287Z,0
2018-07-04T00:39:52.286Z,0
2018-07-04T00:40:52.358Z,0
2018-07-04T00:41:52.389Z,0
2018-07-04T00:42:52.365Z,0
2018-07-04T00:43:52.310Z,0
2018-07-04T00:44:52.365Z,0
2018-07-04T00:45:52.394Z,0
2018-07-04T00:46:52.430Z,0
2018-07-04T00:47:52.302Z,0
2018-07-04T00:48:52.394Z,0
2018-07-04T00:49:52.300Z,0
2018-07-04T00:50:52.364Z,0
2018-07-04T00:51:52.361Z,0
2018-07-04T00:52:52.415Z,0
2018-07-04T00:53:52.304Z,0
2018-07-04T00:54:52.306Z,0
2018-07-04T00:55:52.369Z,0
2018-07-04T00:56:52.325Z,0
2018-07-04T00:57:52.303Z,0
2018-07-04T00:58:52.316Z,0
2018-07-04T00:59:52.422Z,0
2018-07-04T01:00:52.369Z,0
2018-07-04T01:01:52.371Z,0
2018-07-04T01:02:52.436Z,0
2018-07-04T01:03:52.310Z,0
2018-07-04T01:04:52.361Z,0
2018-07-04T01:05:52.405Z,0
2018-07-04T01:06:52.434Z,0
2018-07-04T01:07:52.304Z,0
2018-07-04T01:08:52.378Z,0
2018-07-04T01:09:52.327Z,0
2018-07-04T01:10:52.437Z,0
2018-07-04T01:11:52.440Z,0
2018-07-04T01:12:52.389Z,0
2018-07-04T01:13:52.412Z,0
2018-07-04T01:14:52.315Z,0
2018-07-04T01:15:52.311Z,0
2018-07-04T01:16:52.446Z,0
2018-07-04T01:17:52.294Z,0
2018-07-04T01:18:52.317Z,0
2018-07-04T01:19:52.359Z,0
2018-07-04T01:20:52.294Z,0
2018-07-04T01:21:52.359Z,0
2018-07-04T01:22:52.334Z,0
2018-07-04T01:23:52.429Z,0
2018-07-04T01:24:52.406Z,0
2018-07-04T01:25:52.378Z,0
2018-07-04T01:26:52.359Z,0
2018-07-04T01:27:52.326Z,0
2018-07-04T01:28:52.342Z,0
2018-07-04T01:29:52.420Z,0
2018-07-04T01:30:52.449Z,0
2018-07-04T01:31:52.453Z,0
2018-07-04T01:32:52.451Z,0
2018-07-04T01:33:52.394Z,0
2018-07-04T01:34:52.429Z,0
2018-07-04T01:35:52.422Z,0
2018-07-04T01:36:52.426Z,0
2018-07-04T01:37:52.418Z,0
2018-07-04T01:38:52.428Z,0
2018-07-04T01:39:52.388Z,0
2018-07-04T01:40:52.493Z,0
2018-07-04T01:41:52.367Z,0
2018-07-04T01:42:52.364Z,0
2018-07-04T01:43:52.433Z,0
2018-07-04T01:44:52.367Z,0
2018-07-04T01:45:52.444Z,0
2018-07-04T01:46:52.372Z,0
2018-07-04T01:47:52.438Z,0
2018-07-04T01:48:52.435Z,0
2018-07-04T01:49:52.373Z,0
2018-07-04T01:50:52.372Z,0
2018-07-04T01:51:52.317Z,0
2018-07-04T01:52:52.436Z,0
2018-07-04T01:53:52.373Z,0
2018-07-04T01:54:52.404Z,0
2018-07-04T01:55:52.371Z,0
2018-07-04T01:56:52.440Z,0
2018-07-04T01:57:52.373Z,0
2018-07-04T01:58:52.443Z,0
2018-07-04T01:59:52.373Z,0
2018-07-04T02:00:52.431Z,0
2018-07-04T02:01:52.375Z,0
2018-07-04T02:02:52.445Z,0
2018-07-04T02:03:52.415Z,0
2018-07-04T02:04:52.377Z,0
2018-07-04T02:05:52.448Z,0
2018-07-04T02:06:52.383Z,0
2018-07-04T02:07:52.343Z,0
2018-07-04T02:08:52.339Z,0
2018-07-04T02:09:52.319Z,0
2018-07-04T02:10:52.389Z,0
2018-07-04T02:11:52.439Z,0
2018-07-04T02:12:52.381Z,0
2018-07-04T02:13:52.319Z,0
2018-07-04T02:14:52.380Z,4
2018-07-04T02:15:52.343Z,4
2018-07-04T02:16:52.381Z,4
2018-07-04T02:17:52.327Z,4
2018-07-04T02:18:52.445Z,0
2018-07-04T02:19:52.411Z,0
2018-07-04T02:20:52.360Z,4
2018-07-04T02:21:52.378Z,4
2018-07-04T02:22:52.364Z,4
2018-07-04T02:23:52.363Z,4
2018-07-04T02:24:52.453Z,4
2018-07-04T02:25:52.331Z,8
2018-07-04T02:26:52.455Z,8
2018-07-04T02:27:52.456Z,8
2018-07-04T02:28:52.410Z,12
2018-07-04T02:29:52.458Z,12
2018-07-04T02:30:52.463Z,12
2018-07-04T02:31:52.460Z,16
2018-07-04T02:32:52.403Z,16
2018-07-04T02:33:52.404Z,20
2018-07-04T02:34:52.499Z,24
2018-07-04T02:35:52.460Z,24
2018-07-04T02:36:52.455Z,28
2018-07-04T02:37:52.366Z,28
2018-07-04T02:38:52.372Z,32
2018-07-04T02:39:52.469Z,36
2018-07-04T02:40:52.447Z,44
2018-07-04T02:41:52.388Z,48
2018-07-04T02:42:52.469Z,56
2018-07-04T02:43:52.505Z,64
2018-07-04T02:44:52.413Z,72
2018-07-04T02:45:52.480Z,84
2018-07-04T02:46:52.398Z,92
2018-07-04T02:47:52.391Z,104
2018-07-04T02:48:52.499Z,116
2018-07-04T02:49:52.492Z,128
2018-07-04T02:50:52.476Z,144
2018-07-04T02:51:52.490Z,156
2018-07-04T02:52:52.506Z,180
2018-07-04T02:53:52.499Z,196
2018-07-04T02:54:52.478Z,220
2018-07-04T02:55:52.474Z,244
2018-07-04T02:56:52.483Z,268
2018-07-04T02:57:52.384Z,296
2018-07-04T02:58:52.393Z,324
2018-07-04T02:59:52.520Z,356
2018-07-04T03:00:52.385Z,396
2018-07-04T03:01:52.499Z,432
2018-07-04T03:02:52.513Z,472
2018-07-04T03:03:52.488Z,512
2018-07-04T03:04:52.510Z,556
2018-07-04T03:05:52.564Z,604
2018-07-04T03:06:52.455Z,656
2018-07-04T03:07:52.486Z,716
2018-07-04T03:08:52.419Z,772
2018-07-04T03:09:52.500Z,836
2018-07-04T03:10:52.425Z,900
2018-07-04T03:11:52.489Z,968
2018-07-04T03:12:52.454Z,1040
2018-07-04T03:13:52.423Z,1112
2018-07-04T03:14:52.494Z,1192
2018-07-04T03:15:52.494Z,1272
2018-07-04T03:16:52.427Z,1360
2018-07-04T03:17:52.512Z,1448
2018-07-04T03:18:52.464Z,1540
2018-07-04T03:19:52.522Z,1636
2018-07-04T03:20:52.496Z,1732
2018-07-04T03:21:52.412Z,1836
2018-07-04T03:22:52.460Z,1940
2018-07-04T03:23:52.459Z,2052
2018-07-04T03:24:52.463Z,2164
2018-07-04T03:25:52.451Z,2284
2018-07-04T03:26:52.521Z,2404
2018-07-04T03:27:52.472Z,2532
2018-07-04T03:28:52.406Z,2656
2018-07-04T03:29:52.535Z,2788
2018-07-04T03:30:52.512Z,2924
2018-07-04T03:31:52.407Z,3064
2018-07-04T03:32:52.500Z,3196
2018-07-04T03:33:52.536Z,3344
2018-07-04T03:34:52.478Z,3484
2018-07-04T03:35:52.505Z,3628
2018-07-04T03:36:52.438Z,3776
2018-07-04T03:37:52.425Z,3920
2018-07-04T03:38:52.410Z,4072
2018-07-04T03:39:52.474Z,4224
2018-07-04T03:40:52.407Z,4376
2018-07-04T03:41:52.415Z,4532
2018-07-04T03:42:52.415Z,4696
2018-07-04T03:43:52.487Z,4860
2018-07-04T03:44:52.469Z,5020
2018-07-04T03:45:52.436Z,5172
2018-07-04T03:46:52.431Z,5332
2018-07-04T03:47:52.494Z,5484
2018-07-04T03:48:52.381Z,5648
2018-07-04T03:49:52.569Z,5796
2018-07-04T03:50:52.592Z,5956
2018-07-04T03:51:52.419Z,6112
2018-07-04T03:52:52.403Z,6296
2018-07-04T03:53:52.447Z,6452
2018-07-04T03:54:52.384Z,6608
2018-07-04T03:55:52.467Z,6764
2018-07-04T03:56:52.383Z,6916
2018-07-04T03:57:52.457Z,7068
2018-07-04T03:58:52.552Z,7220
2018-07-04T03:59:52.456Z,7368
2018-07-04T04:00:52.474Z,7528
2018-07-04T04:01:52.541Z,7672
2018-07-04T04:02:52.539Z,7832
2018-07-04T04:03:52.495Z,7976
2018-07-04T04:04:52.542Z,8136
2018-07-04T04:05:52.555Z,8288
2018-07-04T04:06:52.498Z,8448
2018-07-04T04:07:52.548Z,8592
2018-07-04T04:08:52.458Z,8744
2018-07-04T04:09:52.566Z,8908
2018-07-04T04:10:52.528Z,9072
2018-07-04T04:11:52.527Z,9224
2018-07-04T04:12:52.544Z,9384
2018-07-04T04:13:52.520Z,9532
2018-07-04T04:14:52.463Z,9680
2018-07-04T04:15:52.529Z,9824
2018-07-04T04:16:52.534Z,9968
2018-07-04T04:17:52.461Z,10100
2018-07-04T04:18:52.465Z,10244
2018-07-04T04:19:52.583Z,10380
2018-07-04T04:20:52.535Z,10516
2018-07-04T04:21:52.467Z,10652
2018-07-04T04:22:52.538Z,10776
2018-07-04T04:23:52.476Z,10904
2018-07-04T04:24:52.471Z,11024
2018-07-04T04:25:52.486Z,11144
2018-07-04T04:26:52.470Z,11260
2018-07-04T04:27:52.584Z,11380
2018-07-04T04:28:52.538Z,11488
2018-07-04T04:29:52.472Z,11604
2018-07-04T04:30:52.476Z,11704
2018-07-04T04:31:52.569Z,11796
2018-07-04T04:32:52.576Z,11884
2018-07-04T04:33:52.490Z,11980
2018-07-04T04:34:52.544Z,12044
2018-07-04T04:35:52.575Z,12108
2018-07-04T04:36:52.543Z,12160
2018-07-04T04:37:52.574Z,12220
2018-07-04T04:38:52.510Z,12272
2018-07-04T04:39:52.483Z,12316
2018-07-04T04:40:52.514Z,12364
2018-07-04T04:41:52.453Z,12424
2018-07-04T04:42:52.454Z,12456
2018-07-04T04:43:52.553Z,12500
2018-07-04T04:44:52.520Z,12544
2018-07-04T04:45:52.504Z,12584
2018-07-04T04:46:52.510Z,12624
2018-07-04T04:47:52.507Z,12652
2018-07-04T04:48:52.509Z,12684
2018-07-04T04:49:52.509Z,12712
2018-07-04T04:50:52.421Z,12740
2018-07-04T04:51:52.440Z,12776
2018-07-04T04:52:52.541Z,12788
2018-07-04T04:53:52.539Z,12788
2018-07-04T04:54:52.649Z,12780
2018-07-04T04:55:52.419Z,12780
2018-07-04T04:56:52.447Z,12776
2018-07-04T04:57:52.581Z,12788
2018-07-04T04:58:52.518Z,12796
2018-07-04T04:59:52.560Z,12812
2018-07-04T05:00:52.464Z,12780
2018-07-04T05:01:52.583Z,12748
2018-07-04T05:02:52.516Z,12764
2018-07-04T05:03:52.469Z,12772
2018-07-04T05:04:52.545Z,12884
2018-07-04T05:05:52.604Z,12944
2018-07-04T05:06:52.475Z,13048
2018-07-04T05:07:52.567Z,13120
2018-07-04T05:08:52.498Z,13208
2018-07-04T05:09:52.468Z,13272
2018-07-04T05:10:52.467Z,13384
2018-07-04T05:11:52.453Z,13544
2018-07-04T05:12:52.599Z,13684
2018-07-04T05:13:52.572Z,13804
2018-07-04T05:14:52.554Z,13904
2018-07-04T05:15:52.510Z,13996
2018-07-04T05:16:52.556Z,14104
2018-07-04T05:17:52.543Z,14224
2018-07-04T05:18:52.557Z,14372
2018-07-04T05:19:52.553Z,14560
2018-07-04T05:20:52.553Z,14740
2018-07-04T05:21:52.477Z,14900
2018-07-04T05:22:52.613Z,15040
2018-07-04T05:23:52.496Z,15200
2018-07-04T05:24:52.535Z,15356
2018-07-04T05:25:52.552Z,15504
2018-07-04T05:26:52.554Z,15640
2018-07-04T05:27:52.543Z,15764
2018-07-04T05:28:52.476Z,15908
2018-07-04T05:29:52.477Z,16056
2018-07-04T05:30:52.598Z,16216
2018-07-04T05:31:52.623Z,16376
2018-07-04T05:32:52.612Z,16536
2018-07-04T05:33:52.545Z,16700
2018-07-04T05:34:52.524Z,16868
2018-07-04T05:35:52.558Z,17044
2018-07-04T05:36:52.526Z,17224
2018-07-04T05:37:52.551Z,17404
2018-07-04T05:38:52.621Z,17580
2018-07-04T05:39:52.623Z,17772
2018-07-04T05:40:52.662Z,17980
2018-07-04T05:41:52.607Z,18136
2018-07-04T05:42:52.566Z,18396
2018-07-04T05:43:52.573Z,18668
2018-07-04T05:44:52.614Z,18948
2018-07-04T05:45:52.650Z,19332
2018-07-04T05:46:52.593Z,21744
2018-07-04T05:47:52.549Z,37152
2018-07-04T05:48:52.555Z,49376
2018-07-04T05:49:52.573Z,51136
2018-07-04T05:50:52.560Z,53632
2018-07-04T05:51:52.569Z,56992
2018-07-04T05:52:52.557Z,58752
2018-07-04T05:53:52.568Z,59200
2018-07-04T05:54:52.621Z,58368
2018-07-04T05:55:52.614Z,58784
2018-07-04T05:56:52.540Z,59808
2018-07-04T05:57:52.632Z,60544
2018-07-04T05:58:52.608Z,60928
2018-07-04T05:59:52.564Z,60544
2018-07-04T06:00:52.499Z,59904
2018-07-04T06:01:52.569Z,58880
2018-07-04T06:02:52.615Z,57760
2018-07-04T06:03:52.628Z,57280
2018-07-04T06:04:52.571Z,57440
2018-07-04T06:05:52.641Z,58048
2018-07-04T06:06:52.605Z,57952
2018-07-04T06:07:52.616Z,58208
2018-07-04T06:08:52.532Z,54944
2018-07-04T06:09:52.526Z,50304
2018-07-04T06:10:52.543Z,45152
2018-07-04T06:11:52.474Z,45120
2018-07-04T06:12:52.564Z,46144
2018-07-04T06:13:52.499Z,49344
2018-07-04T06:14:52.542Z,51168
2018-07-04T06:15:52.588Z,52320
2018-07-04T06:16:52.498Z,54304
2018-07-04T06:17:52.573Z,52640
2018-07-04T06:18:52.568Z,51456
2018-07-04T06:19:52.598Z,48288
2018-07-04T06:20:52.548Z,44608
2018-07-04T06:21:52.506Z,39328
2018-07-04T06:22:52.536Z,38112
2018-07-04T06:23:52.596Z,40320
2018-07-04T06:24:52.585Z,46624
2018-07-04T06:25:52.509Z,48832
2018-07-04T06:26:52.507Z,50560
2018-07-04T06:27:52.654Z,51008
2018-07-04T06:28:52.623Z,54016
2018-07-04T06:29:52.555Z,56000
2018-07-04T06:30:52.619Z,56864
2018-07-04T06:31:52.624Z,59648
2018-07-04T06:32:52.554Z,64864
2018-07-04T06:33:52.625Z,68704
2018-07-04T06:34:52.559Z,68064
2018-07-04T06:35:52.558Z,61376
2018-07-04T06:36:52.525Z,53536
2018-07-04T06:37:52.650Z,53600
2018-07-04T06:38:52.651Z,57632
2018-07-04T06:39:52.602Z,61760
2018-07-04T06:40:52.540Z,67488
2018-07-04T06:41:52.665Z,71360
2018-07-04T06:42:52.663Z,74880
2018-07-04T06:43:52.652Z,74208
2018-07-04T06:44:52.594Z,72192
2018-07-04T06:45:52.669Z,69792
2018-07-04T06:46:52.653Z,68832
2018-07-04T06:47:52.599Z,68736
2018-07-04T06:48:52.627Z,75072
2018-07-04T06:49:52.559Z,82176
2018-07-04T06:50:52.509Z,87424
2018-07-04T06:51:52.528Z,89920
2018-07-04T06:52:52.613Z,89216
2018-07-04T06:53:52.558Z,84928
2018-07-04T06:54:52.569Z,79136
2018-07-04T06:55:52.526Z,75488
2018-07-04T06:56:52.499Z,75072
2018-07-04T06:57:52.590Z,78144
2018-07-04T06:58:52.640Z,83200
2018-07-04T06:59:52.637Z,87808
2018-07-04T07:00:52.616Z,92448
2018-07-04T07:01:52.685Z,94784
2018-07-04T07:02:52.626Z,93632
2018-07-04T07:03:52.607Z,90016
2018-07-04T07:04:52.617Z,85344
2018-07-04T07:05:52.611Z,80672
2018-07-04T07:06:52.644Z,77440
2018-07-04T07:07:52.612Z,77408
2018-07-04T07:08:52.555Z,81056
2018-07-04T07:09:52.566Z,87584
2018-07-04T07:10:52.588Z,94336
2018-07-04T07:11:52.584Z,99072
2018-07-04T07:12:52.589Z,101728
2018-07-04T07:13:52.604Z,102080
2018-07-04T07:14:52.602Z,100672
2018-07-04T07:15:52.631Z,99808
2018-07-04T07:16:52.689Z,99200
2018-07-04T07:17:52.575Z,98368
2018-07-04T07:18:52.614Z,95456
2018-07-04T07:19:52.588Z,94912
2018-07-04T07:20:52.655Z,92512
2018-07-04T07:21:52.590Z,91776
2018-07-04T07:22:52.594Z,93440
2018-07-04T07:23:52.654Z,96000
2018-07-04T07:24:52.660Z,98688
2018-07-04T07:25:52.657Z,99392
2018-07-04T07:26:52.591Z,104064
2018-07-04T07:27:52.594Z,107264
2018-07-04T07:28:52.551Z,109280
2018-07-04T07:29:52.596Z,109344
2018-07-04T07:30:52.555Z,108800
2018-07-04T07:31:52.616Z,106208
2018-07-04T07:32:52.557Z,100064
2018-07-04T07:33:52.712Z,96576
2018-07-04T07:34:52.628Z,90848
2018-07-04T07:35:52.641Z,92224
2018-07-04T07:36:52.563Z,95296
2018-07-04T07:37:52.599Z,97120
2018-07-04T07:38:52.673Z,98784
2018-07-04T07:39:52.602Z,100640
2018-07-04T07:40:52.601Z,102592
2018-07-04T07:41:52.689Z,104768
2018-07-04T07:42:52.668Z,107840
2018-07-04T07:43:52.674Z,108288
2018-07-04T07:44:52.603Z,105632
2018-07-04T07:45:52.604Z,104992
2018-07-04T07:46:52.685Z,107712
2018-07-04T07:47:52.605Z,108032
2018-07-04T07:48:52.636Z,109504
2018-07-04T07:49:52.616Z,111040
2018-07-04T07:50:52.569Z,111040
2018-07-04T07:51:52.708Z,112224
2018-07-04T07:52:52.700Z,112032
2018-07-04T07:53:52.703Z,112160
2018-07-04T07:54:52.612Z,112448
2018-07-04T07:55:52.655Z,112320
2018-07-04T07:56:52.639Z,113216
2018-07-04T07:57:52.714Z,115648
2018-07-04T07:58:52.579Z,116832
2018-07-04T07:59:52.585Z,116544
2018-07-04T08:00:52.706Z,89088
2018-07-04T08:01:52.713Z,90656
2018-07-04T08:02:52.635Z,109216
2018-07-04T08:03:52.606Z,113536
2018-07-04T08:04:52.651Z,112416
2018-07-04T08:05:52.632Z,111360
2018-07-04T08:06:52.678Z,110496
2018-07-04T08:07:52.693Z,111584
2018-07-04T08:08:52.618Z,110656
2018-07-04T08:09:52.686Z,108576
2018-07-04T08:10:52.619Z,107360
2018-07-04T08:11:52.625Z,105024
2018-07-04T08:12:52.683Z,106304
2018-07-04T08:13:52.642Z,108960
2018-07-04T08:14:52.686Z,112864
2018-07-04T08:15:52.719Z,116768
2018-07-04T08:16:52.623Z,120672
2018-07-04T08:17:52.695Z,123584
2018-07-04T08:18:52.756Z,125792
2018-07-04T08:19:52.732Z,125792
2018-07-04T08:20:52.662Z,123584
2018-07-04T08:21:52.720Z,88704
2018-07-04T08:22:52.731Z,89984
2018-07-04T08:23:52.662Z,98912
2018-07-04T08:24:52.673Z,124192
2018-07-04T08:25:52.696Z,125888
2018-07-04T08:26:52.789Z,126208
2018-07-04T08:27:52.725Z,123392
2018-07-04T08:28:52.716Z,122592
2018-07-04T08:29:52.719Z,119456
2018-07-04T08:30:52.675Z,114848
2018-07-04T08:31:52.778Z,114464
2018-07-04T08:32:52.622Z,118496
2018-07-04T08:33:52.612Z,115520
2018-07-04T08:34:52.667Z,122400
2018-07-04T08:35:52.666Z,126080
2018-07-04T08:36:52.661Z,125472
2018-07-04T08:37:52.637Z,126368
2018-07-04T08:38:52.696Z,124544
2018-07-04T08:39:52.685Z,119552
2018-07-04T08:40:52.697Z,120896
2018-07-04T08:41:52.708Z,125760
2018-07-04T08:42:52.608Z,122528
2018-07-04T08:43:52.737Z,124288
2018-07-04T08:44:52.711Z,128640
2018-07-04T08:45:52.685Z,127488
2018-07-04T08:46:52.710Z,128032
2018-07-04T08:47:52.791Z,126240
2018-07-04T08:48:52.679Z,129312
2018-07-04T08:49:52.738Z,127200
2018-07-04T08:50:52.781Z,125824
2018-07-04T08:51:52.738Z,125984
2018-07-04T08:52:52.669Z,130592
2018-07-04T08:53:52.742Z,132512
2018-07-04T08:54:52.796Z,134912
2018-07-04T08:55:52.748Z,137824
2018-07-04T08:56:52.712Z,139136
2018-07-04T08:57:52.752Z,139456
2018-07-04T08:58:52.718Z,139136
2018-07-04T08:59:52.716Z,140544
2018-07-04T09:00:52.655Z,138688
2018-07-04T09:01:52.655Z,139104
2018-07-04T09:02:52.671Z,140160
2018-07-04T09:03:52.714Z,142528
2018-07-04T09:04:52.731Z,142176
2018-07-04T09:05:52.656Z,140992
2018-07-04T09:06:52.607Z,139840
2018-07-04T09:07:52.646Z,138752
2018-07-04T09:08:52.754Z,138112
2018-07-04T09:09:52.685Z,137920
2018-07-04T09:10:52.768Z,139584
2018-07-04T09:11:52.738Z,140864
2018-07-04T09:12:52.686Z,142112
2018-07-04T09:13:52.632Z,143712
2018-07-04T09:14:52.725Z,145120
2018-07-04T09:15:52.745Z,145280
2018-07-04T09:16:52.699Z,145184
2018-07-04T09:17:52.732Z,143040
2018-07-04T09:18:52.731Z,145216
2018-07-04T09:19:52.669Z,147232
2018-07-04T09:20:52.736Z,148608
2018-07-04T09:21:52.734Z,149408
2018-07-04T09:22:52.672Z,150880
2018-07-04T09:23:52.733Z,152992
2018-07-04T09:24:52.670Z,154816
2018-07-04T09:25:52.675Z,155808
2018-07-04T09:26:52.740Z,155552
2018-07-04T09:27:52.739Z,154336
2018-07-04T09:28:52.778Z,152416
2018-07-04T09:29:52.702Z,152544
2018-07-04T09:30:52.708Z,152096
2018-07-04T09:31:52.644Z,152160
2018-07-04T09:32:52.745Z,152352
2018-07-04T09:33:52.665Z,155040
2018-07-04T09:34:52.663Z,155488
2018-07-04T09:35:52.771Z,155584
2018-07-04T09:36:52.653Z,150528
2018-07-04T09:37:52.722Z,156256
2018-07-04T09:38:52.684Z,161600
2018-07-04T09:39:52.636Z,161984
2018-07-04T09:40:52.743Z,163776
2018-07-04T09:41:52.739Z,160896
2018-07-04T09:42:52.623Z,150688
2018-07-04T09:43:52.676Z,145376
2018-07-04T09:44:52.653Z,137216
2018-07-04T09:45:52.690Z,128896
2018-07-04T09:46:52.655Z,136768
2018-07-04T09:47:52.707Z,132832
2018-07-04T09:48:52.692Z,139136
2018-07-04T09:49:52.757Z,133984
2018-07-04T09:50:52.783Z,138752
2018-07-04T09:51:52.727Z,141024
2018-07-04T09:52:52.755Z,144992
2018-07-04T09:53:52.735Z,147840
2018-07-04T09:54:52.658Z,146752
2018-07-04T09:55:52.665Z,104576
2018-07-04T09:58:52.744Z,80352
2018-07-04T09:59:52.675Z,75712
2018-07-04T10:00:52.746Z,81440
2018-07-04T10:01:52.749Z,119296
2018-07-04T10:02:52.670Z,82528
2018-07-04T10:03:52.694Z,91872
2018-07-04T10:04:52.746Z,77056
2018-07-04T10:05:52.749Z,70944
2018-07-04T10:06:52.667Z,70592
2018-07-04T10:07:52.760Z,81440
2018-07-04T10:08:52.721Z,84096
2018-07-04T10:09:52.668Z,107936
2018-07-04T10:10:52.789Z,110848
2018-07-04T10:11:52.792Z,131072
2018-07-04T10:12:52.806Z,145728
2018-07-04T10:13:52.730Z,166336
2018-07-04T10:14:52.768Z,165280
2018-07-04T10:15:52.723Z,164512
2018-07-04T10:16:52.796Z,150240
2018-07-04T10:17:52.739Z,97248
2018-07-04T10:18:52.802Z,132736
2018-07-04T10:19:52.775Z,159936
2018-07-04T10:20:52.802Z,154592
2018-07-04T10:21:52.809Z,87232
2018-07-04T10:22:52.792Z,81248
2018-07-04T10:23:52.802Z,80960
2018-07-04T10:24:52.809Z,85568
2018-07-04T10:25:52.680Z,102496
2018-07-04T10:26:52.794Z,87488
2018-07-04T10:27:52.679Z,96864
2018-07-04T10:28:52.763Z,112480
2018-07-04T10:29:52.688Z,138528
2018-07-04T10:30:52.816Z,100704
2018-07-04T10:31:52.724Z,86656
2018-07-04T10:32:52.747Z,81696
2018-07-04T10:33:52.783Z,76128
2018-07-04T10:34:52.745Z,72704
2018-07-04T10:35:52.812Z,70304
2018-07-04T10:36:52.818Z,68640
2018-07-04T10:37:52.690Z,67744
2018-07-04T10:38:52.743Z,67328
2018-07-04T10:39:52.830Z,67232
2018-07-04T10:40:52.811Z,67456
2018-07-04T10:41:52.833Z,67968
2018-07-04T10:42:52.824Z,68736
2018-07-04T10:43:52.753Z,69632
2018-07-04T10:44:52.843Z,70560
2018-07-04T10:45:52.822Z,71296
2018-07-04T10:46:52.825Z,71712
2018-07-04T10:47:52.712Z,71904
2018-07-04T10:48:52.763Z,71936
2018-07-04T10:49:52.771Z,71616
2018-07-04T10:50:52.841Z,71680
2018-07-04T10:51:52.759Z,72352
2018-07-04T10:52:52.697Z,73920
2018-07-04T10:53:52.797Z,76736
2018-07-04T10:54:52.815Z,80576
2018-07-04T10:55:52.790Z,84128
2018-07-04T10:56:52.748Z,86688
2018-07-04T10:57:52.761Z,89760
2018-07-04T10:58:52.806Z,84256
2018-07-04T10:59:52.722Z,80928
2018-07-04T11:00:52.757Z,84128
2018-07-04T11:01:52.838Z,83072
2018-07-04T11:02:52.775Z,85792
2018-07-04T11:03:52.764Z,118752
2018-07-04T11:04:52.776Z,138336
2018-07-04T11:05:52.784Z,162592
2018-07-04T11:06:52.845Z,173184
2018-07-04T11:07:52.837Z,176896
2018-07-04T11:08:52.775Z,177632
2018-07-04T11:09:52.849Z,181824
2018-07-04T11:10:52.803Z,179008
2018-07-04T11:11:52.764Z,180288
2018-07-04T11:12:52.838Z,164992
2018-07-04T11:13:52.774Z,186144
2018-07-04T11:14:52.865Z,186208
2018-07-04T11:15:52.831Z,186720
2018-07-04T11:16:52.880Z,180800
2018-07-04T11:17:52.716Z,177536
2018-07-04T11:18:52.717Z,182208
2018-07-04T11:19:52.750Z,182144
2018-07-04T11:20:52.797Z,180480
2018-07-04T11:21:52.778Z,185408
2018-07-04T11:22:52.715Z,186368
2018-07-04T11:23:52.807Z,177024
2018-07-04T11:24:52.706Z,182720
2018-07-04T11:25:52.797Z,176448
2018-07-04T11:26:52.802Z,169472
2018-07-04T11:27:52.736Z,172064
2018-07-04T11:28:52.774Z,166784
2018-07-04T11:29:52.691Z,177120
2018-07-04T11:30:52.748Z,172800
2018-07-04T11:31:52.750Z,179808
2018-07-04T11:32:52.707Z,181248
2018-07-04T11:33:52.782Z,138496
2018-07-04T11:34:52.809Z,181632
2018-07-04T11:35:52.693Z,183840
2018-07-04T11:36:52.778Z,183808
2018-07-04T11:37:52.782Z,178400
2018-07-04T11:38:52.842Z,164224
2018-07-04T11:39:52.749Z,163008
2018-07-04T11:40:52.788Z,164000
2018-07-04T11:41:52.860Z,162912
2018-07-04T11:42:52.800Z,170560
2018-07-04T11:43:52.736Z,170176
2018-07-04T11:44:52.825Z,169056
2018-07-04T11:45:52.854Z,170560
2018-07-04T11:46:52.831Z,163456
2018-07-04T11:47:52.770Z,171328
2018-07-04T11:48:52.732Z,159616
2018-07-04T11:49:52.871Z,174976
2018-07-04T11:50:52.814Z,175584
2018-07-04T11:51:52.868Z,179136
2018-07-04T11:52:52.872Z,165856
2018-07-04T11:53:52.793Z,173152
2018-07-04T11:54:52.773Z,185312
2018-07-04T11:55:52.877Z,181440
2018-07-04T11:56:52.878Z,177408
2018-07-04T11:57:52.858Z,177024
2018-07-04T11:58:52.821Z,172160
2018-07-04T11:59:52.789Z,168160
2018-07-04T12:00:52.832Z,170144
2018-07-04T12:01:52.763Z,164928
2018-07-04T12:02:52.833Z,169824
2018-07-04T12:03:52.746Z,167520
2018-07-04T12:04:52.750Z,168704
2018-07-04T12:05:52.915Z,174560
2018-07-04T12:06:52.836Z,181344
2018-07-04T12:07:52.713Z,181728
2018-07-04T12:08:52.838Z,173952
2018-07-04T12:09:52.782Z,169312
2018-07-04T12:10:52.860Z,177024
2018-07-04T12:11:52.847Z,178240
2018-07-04T12:12:52.780Z,176608
2018-07-04T12:13:52.846Z,173376
2018-07-04T12:14:52.781Z,173632
2018-07-04T12:15:52.786Z,171680
2018-07-04T12:16:52.743Z,170752
2018-07-04T12:17:52.784Z,170016
2018-07-04T12:18:52.851Z,168736
2018-07-04T12:19:52.874Z,168704
2018-07-04T12:20:52.802Z,166496
2018-07-04T12:21:52.828Z,156416
2018-07-04T12:22:52.889Z,153920
2018-07-04T12:23:52.855Z,120832
2018-07-04T12:24:52.892Z,127840
2018-07-04T12:25:52.814Z,106752
2018-07-04T12:26:52.891Z,68928
2018-07-04T12:27:52.898Z,89152
2018-07-04T12:28:52.825Z,118432
2018-07-04T12:29:52.791Z,118432
2018-07-04T12:30:52.792Z,69856
2018-07-04T12:31:52.843Z,66784
2018-07-04T12:32:52.797Z,74752
2018-07-04T12:33:52.794Z,153280
2018-07-04T12:34:52.876Z,157824
2018-07-04T12:35:52.800Z,161760
2018-07-04T12:36:52.799Z,165728
2018-07-04T12:37:52.876Z,164640
2018-07-04T12:38:52.797Z,163968
2018-07-04T12:39:52.894Z,158560
2018-07-04T12:40:52.843Z,152192
2018-07-04T12:41:52.877Z,135776
2018-07-04T12:42:52.891Z,122688
2018-07-04T12:43:52.901Z,78240
2018-07-04T12:44:52.891Z,73696
2018-07-04T12:45:52.870Z,74720
2018-07-04T12:46:52.822Z,84736
2018-07-04T12:47:52.917Z,94624
2018-07-04T12:48:52.868Z,77856
2018-07-04T12:49:52.896Z,86880
2018-07-04T12:50:52.899Z,169760
2018-07-04T12:51:52.796Z,164896
2018-07-04T12:52:52.782Z,146272
2018-07-04T12:53:52.986Z,147904
2018-07-04T12:54:53.029Z,159136
2018-07-04T12:55:52.903Z,155968
2018-07-04T12:56:52.855Z,150944
2018-07-04T12:57:52.918Z,142944
2018-07-04T12:58:52.843Z,143264
2018-07-04T12:59:52.816Z,145824
2018-07-04T13:00:52.886Z,150912
2018-07-04T13:01:52.815Z,70400
2018-07-04T13:02:52.904Z,124480
2018-07-04T13:03:52.820Z,60512
2018-07-04T13:04:52.771Z,60512
2018-07-04T13:05:52.890Z,56928
2018-07-04T13:06:52.883Z,65408
2018-07-04T13:07:52.818Z,130880
2018-07-04T13:08:52.820Z,130528
2018-07-04T13:09:52.901Z,131712
2018-07-04T13:10:52.784Z,133344